Time;durP1;ratioP1;P1;durP2;ratioP2;P2;SDS_P1;SDS_P2;PMS_P1;PMS_P2;Temp;Humidity;BMP_temperature;BMP_pressure;BME280_temperature;BME280_humidity;BME280_pressure;Samples;Min_cycle;Max_cycle;Signal;HPM_P1;HPM_P2
2022/06/30 00:00:29;;;;;;;7.97;3.52;;;;;;;19.35;74.92;100043.21;2020460;86;21046;-71
2022/06/30 00:03:33;;;;;;;10.78;3.47;;;;;;;19.23;75.41;100027.83;2018584;86;21006;-74
2022/06/30 00:06:35;;;;;;;5.40;3.15;;;;;;;19.12;75.93;100025.89;2014433;86;21088;-71
2022/06/30 00:09:36;;;;;;;9.80;3.22;;;;;;;19.02;76.30;100044.41;2015781;86;21006;-72
2022/06/30 00:12:39;;;;;;;12.45;4.55;;;;;;;18.95;76.31;100109.52;2016805;86;20975;-73
2022/06/30 00:33:43;;;;;;;7.97;4.35;;;;;;;18.42;82.08;99951.48;2201152;80;22372;-71
2022/06/30 00:36:46;;;;;;;9.13;3.92;;;;;;;18.18;81.37;99971.94;2166861;81;21520;-69
2022/06/30 00:39:48;;;;;;;11.33;4.20;;;;;;;18.15;81.09;99996.84;2163582;81;21638;-71
2022/06/30 00:42:54;;;;;;;7.83;3.40;;;;;;;18.20;80.93;100005.59;2168176;81;20986;-70
2022/06/30 00:45:55;;;;;;;4.65;3.35;;;;;;;18.21;81.33;99988.42;2173833;81;21050;-69
2022/06/30 00:48:56;;;;;;;7.92;3.80;;;;;;;18.12;81.65;99974.45;2162933;81;21484;-70
2022/06/30 00:52:00;;;;;;;6.90;3.30;;;;;;;18.00;82.95;99960.11;2137405;81;21029;-69
2022/06/30 00:55:05;;;;;;;5.62;3.55;;;;;;;17.91;82.69;99962.25;2169816;81;21026;-69
2022/06/30 00:58:08;;;;;;;6.87;4.00;;;;;;;17.92;82.69;99967.91;2141383;81;21449;-71
2022/06/30 01:01:12;;;;;;;7.42;4.10;;;;;;;17.88;82.73;99990.05;2160442;81;21463;-69
2022/06/30 01:04:17;;;;;;;6.28;3.90;;;;;;;17.89;83.18;99998.39;2171293;81;21020;-69
2022/06/30 01:07:22;;;;;;;7.65;4.33;;;;;;;17.88;83.42;99988.19;2162230;81;21022;-69
2022/06/30 01:13:43;;;;;;;11.70;4.95;;;;;;;17.89;83.43;100003.77;2167289;81;21014;-69
2022/06/30 01:16:47;;;;;;;7.35;4.85;;;;;;;17.99;83.39;100028.27;2162045;81;20946;-71
2022/06/30 01:19:56;;;;;;;7.20;4.25;;;;;;;18.07;83.34;100036.03;2168658;81;20987;-69
2022/06/30 01:22:59;;;;;;;7.08;4.05;;;;;;;18.10;83.25;100036.13;2164985;81;21054;-68
2022/06/30 01:26:00;;;;;;;7.00;3.92;;;;;;;18.18;83.23;100069.42;2165503;81;21052;-69
2022/06/30 01:29:07;;;;;;;6.97;4.05;;;;;;;18.24;83.35;100137.55;2145974;81;20998;-68
2022/06/30 01:32:08;;;;;;;6.03;4.35;;;;;;;18.21;84.27;100154.92;2164025;81;21099;-70
2022/06/30 01:35:10;;;;;;;9.88;4.90;;;;;;;18.17;83.65;100091.14;2148019;81;21685;-69
2022/06/30 01:38:11;;;;;;;6.40;4.78;;;;;;;18.17;83.57;100120.16;2151070;81;20987;-68
2022/06/30 01:41:15;;;;;;;6.83;5.37;;;;;;;18.21;83.67;100139.33;2147692;81;21022;-68
2022/06/30 01:53:26;;;;;;;7.85;4.45;;;;;;;18.16;83.65;100062.12;2159066;81;21765;-68
2022/06/30 01:56:28;;;;;;;7.80;4.70;;;;;;;18.07;85.35;100045.43;2157059;81;21018;-70
2022/06/30 01:59:29;;;;;;;8.70;5.40;;;;;;;17.96;84.79;100053.36;2152499;81;21844;-69
2022/06/30 02:02:30;;;;;;;9.50;5.25;;;;;;;17.92;86.20;100039.56;2155489;81;21030;-71
2022/06/30 02:05:32;;;;;;;11.78;5.45;;;;;;;17.87;85.49;100034.83;2158110;82;20959;-68
2022/06/30 02:08:33;;;;;;;6.15;4.67;;;;;;;17.88;85.44;100023.08;2159209;81;21021;-68
2022/06/30 02:11:34;;;;;;;5.78;5.10;;;;;;;17.90;85.42;100001.38;2149988;81;20987;-68
2022/06/30 02:14:36;;;;;;;5.85;4.30;;;;;;;17.91;85.42;99968.14;2153813;81;21049;-69
2022/06/30 02:17:38;;;;;;;6.33;3.83;;;;;;;17.90;86.15;99939.64;2153490;81;21459;-68
2022/06/30 02:20:39;;;;;;;5.45;4.42;;;;;;;17.87;86.10;99926.13;2144774;81;21075;-68
2022/06/30 02:23:42;;;;;;;6.75;4.75;;;;;;;17.87;86.86;99899.30;2157913;81;21013;-68
2022/06/30 02:26:45;;;;;;;7.70;5.12;;;;;;;17.83;86.77;99907.50;2152827;81;21042;-68
2022/06/30 02:29:47;;;;;;;5.85;5.00;;;;;;;17.82;87.47;99911.23;2154452;81;21440;-68
2022/06/30 02:32:49;;;;;;;5.55;4.92;;;;;;;17.80;87.40;99915.98;2160660;81;21049;-67
2022/06/30 02:35:52;;;;;;;5.78;5.03;;;;;;;17.81;88.79;99927.54;2165476;81;21013;-68
2022/06/30 02:38:54;;;;;;;11.22;5.10;;;;;;;17.79;88.07;99921.56;2165668;81;20979;-68
2022/06/30 02:41:55;;;;;;;11.33;5.72;;;;;;;17.78;87.99;99927.95;2170549;81;21079;-69
2022/06/30 02:44:56;;;;;;;6.30;4.85;;;;;;;17.80;87.68;99924.04;2167289;81;21085;-68
2022/06/30 02:47:59;;;;;;;6.95;5.17;;;;;;;17.80;87.93;99924.04;2167728;81;21048;-68
2022/06/30 02:51:00;;;;;;;8.23;5.33;;;;;;;17.78;88.04;99916.72;2162101;81;21002;-68
2022/06/30 02:54:05;;;;;;;6.45;4.47;;;;;;;17.76;88.45;99924.13;2169174;81;21511;-68
2022/06/30 02:57:06;;;;;;;6.83;4.78;;;;;;;17.74;88.30;99921.36;2169527;81;21083;-68
2022/06/30 03:00:14;;;;;;;5.70;4.67;;;;;;;17.73;88.56;99916.52;2143047;81;21018;-69
2022/06/30 03:03:14;;;;;;;6.90;5.20;;;;;;;17.73;88.70;99905.78;2166807;81;21068;-69
2022/06/30 03:06:15;;;;;;;9.25;5.83;;;;;;;17.73;88.70;99888.88;2164682;81;21033;-68
2022/06/30 03:09:21;;;;;;;5.67;4.33;;;;;;;17.73;88.64;99872.24;2162952;81;20990;-69
2022/06/30 03:12:25;;;;;;;5.42;4.85;;;;;;;17.77;89.05;99872.13;2171093;81;21441;-69
2022/06/30 03:15:26;;;;;;;6.03;4.90;;;;;;;17.78;89.34;99861.70;2168882;81;20997;-69
2022/06/30 03:18:29;;;;;;;6.58;4.53;;;;;;;17.81;89.40;99859.11;2170674;81;21571;-70
2022/06/30 03:21:31;;;;;;;7.55;4.78;;;;;;;17.83;89.87;99856.51;2160722;81;21097;-69
2022/06/30 03:24:32;;;;;;;7.37;4.70;;;;;;;17.86;90.92;99848.02;2168854;81;21495;-69
2022/06/30 03:27:33;;;;;;;5.03;4.42;;;;;;;17.88;90.96;99819.63;2171064;81;21010;-69
2022/06/30 03:30:35;;;;;;;8.93;4.72;;;;;;;17.89;91.42;99827.44;2168745;81;21041;-69
2022/06/30 03:33:37;;;;;;;6.45;4.60;;;;;;;17.89;90.93;99823.41;2170891;81;20930;-69
2022/06/30 03:36:38;;;;;;;5.65;4.45;;;;;;;17.91;91.03;99840.66;2165217;81;21499;-73
2022/06/30 03:39:40;;;;;;;4.55;4.15;;;;;;;17.94;90.66;99862.20;2168986;81;21437;-69
2022/06/30 03:42:41;;;;;;;5.28;4.75;;;;;;;17.99;90.57;99876.61;2167964;81;20982;-69
2022/06/30 03:45:43;;;;;;;8.00;4.17;;;;;;;18.04;89.92;99889.34;2162342;81;20970;-69
2022/06/30 03:48:45;;;;;;;5.30;4.50;;;;;;;18.11;89.49;99915.63;2168933;81;21026;-69
2022/06/30 03:51:46;;;;;;;4.85;4.35;;;;;;;18.21;89.29;99928.53;2166521;81;22277;-70
2022/06/30 03:54:48;;;;;;;4.90;4.40;;;;;;;18.30;89.13;99942.81;2166487;81;21021;-69
2022/06/30 03:57:49;;;;;;;6.45;4.20;;;;;;;18.38;88.95;99945.19;2168512;81;21044;-69
2022/06/30 04:00:50;;;;;;;5.15;4.65;;;;;;;18.43;88.58;99941.84;2168901;81;21022;-69
2022/06/30 04:03:52;;;;;;;4.87;4.37;;;;;;;18.49;88.30;99949.53;2160868;81;21032;-69
2022/06/30 04:06:53;;;;;;;6.08;4.60;;;;;;;18.60;88.11;99962.23;2166180;81;20926;-69
2022/06/30 04:09:57;;;;;;;4.33;3.92;;;;;;;18.66;87.93;99955.95;2159415;81;21024;-69
2022/06/30 04:13:00;;;;;;;6.28;3.92;;;;;;;18.73;87.46;99963.44;2166492;81;21029;-69
2022/06/30 04:16:03;;;;;;;5.45;4.22;;;;;;;18.82;87.48;99965.33;2162247;81;21073;-68
2022/06/30 04:19:07;;;;;;;4.67;3.62;;;;;;;18.93;87.41;99967.80;2165006;81;21618;-70
2022/06/30 04:22:10;;;;;;;4.45;3.85;;;;;;;19.04;87.37;99969.20;2165692;81;21018;-69
2022/06/30 04:25:12;;;;;;;4.83;4.40;;;;;;;19.18;87.07;99976.58;2170476;81;21053;-68
2022/06/30 04:28:17;;;;;;;5.85;4.92;;;;;;;19.33;87.02;99974.01;2167823;81;20967;-70
2022/06/30 04:34:38;;;;;;;8.40;4.37;;;;;;;19.66;86.73;99972.23;2156574;81;21088;-68
2022/06/30 04:37:39;;;;;;;4.53;4.12;;;;;;;19.73;86.01;99974.81;2162421;81;20953;-68
2022/06/30 04:44:01;;;;;;;9.23;4.80;;;;;;;19.73;85.45;99979.67;2152191;81;20950;-68
2022/06/30 04:47:03;;;;;;;6.37;5.70;;;;;;;19.77;85.64;99970.63;2153892;81;20999;-68
2022/06/30 04:50:06;;;;;;;5.50;4.95;;;;;;;19.89;85.70;99961.50;2149563;81;21026;-69
2022/06/30 04:53:07;;;;;;;4.72;4.33;;;;;;;20.08;85.53;99962.77;2158817;81;21025;-69
2022/06/30 04:56:10;;;;;;;4.80;4.40;;;;;;;20.30;85.47;99955.76;2153075;81;20985;-68
2022/06/30 04:59:11;;;;;;;6.55;4.22;;;;;;;20.65;84.97;99958.16;2146046;81;21010;-69
2022/06/30 05:02:13;;;;;;;4.33;3.92;;;;;;;21.05;84.50;99960.87;2153111;81;21068;-68
2022/06/30 05:05:15;;;;;;;6.22;4.08;;;;;;;21.44;83.60;99954.36;2144705;81;21402;-68
2022/06/30 05:08:19;;;;;;;4.70;4.30;;;;;;;21.98;83.68;99970.94;2150432;81;21071;-68
2022/06/30 05:11:19;;;;;;;8.15;4.37;;;;;;;22.52;82.66;99969.08;2143786;81;21084;-71
2022/06/30 05:14:21;;;;;;;6.08;3.80;;;;;;;22.85;80.85;99966.01;2154307;81;21068;-68
2022/06/30 05:17:22;;;;;;;6.37;4.20;;;;;;;23.19;80.27;99967.52;2145334;81;21029;-68
2022/06/30 05:20:25;;;;;;;5.92;3.87;;;;;;;23.57;79.53;99969.83;2152965;81;20996;-68
2022/06/30 05:23:27;;;;;;;4.03;3.25;;;;;;;23.68;77.75;99968.01;2152346;81;20994;-68
2022/06/30 05:26:31;;;;;;;7.40;3.80;;;;;;;23.76;77.41;99968.94;2145549;81;21733;-68
2022/06/30 05:29:33;;;;;;;5.95;3.98;;;;;;;24.15;77.03;99976.30;2150715;81;21049;-69
2022/06/30 05:32:36;;;;;;;5.42;3.70;;;;;;;24.44;75.79;99976.52;2153438;81;21088;-69
2022/06/30 05:35:37;;;;;;;10.88;3.75;;;;;;;24.52;74.76;99971.41;2134846;81;21516;-68
2022/06/30 05:38:39;;;;;;;7.58;3.47;;;;;;;24.42;74.27;99969.98;2151419;81;21041;-68
2022/06/30 05:41:40;;;;;;;4.35;3.42;;;;;;;24.51;73.88;99956.23;2151528;81;21468;-68
2022/06/30 05:44:41;;;;;;;3.98;3.58;;;;;;;24.66;73.18;99953.32;2152513;81;21041;-68
2022/06/30 05:47:52;;;;;;;3.90;3.55;;;;;;;25.10;71.76;99952.97;2159524;81;21096;-71
2022/06/30 05:50:54;;;;;;;4.17;3.65;;;;;;;25.20;71.24;99949.78;2148482;81;21037;-70
2022/06/30 05:53:55;;;;;;;3.22;2.92;;;;;;;25.42;70.51;99948.72;2152384;81;21064;-69
2022/06/30 05:56:56;;;;;;;4.00;3.60;;;;;;;25.69;70.26;99956.09;2154975;81;21553;-71
2022/06/30 05:59:58;;;;;;;4.92;3.47;;;;;;;26.01;69.20;99959.66;2144988;81;21025;-70
2022/06/30 06:02:59;;;;;;;3.85;3.15;;;;;;;26.49;68.95;99954.68;2151839;81;21550;-69
2022/06/30 06:06:01;;;;;;;4.83;3.52;;;;;;;26.68;67.41;99948.13;2160206;81;21105;-70
2022/06/30 06:09:03;;;;;;;4.47;3.33;;;;;;;26.66;66.19;99951.12;2153605;81;20973;-71
2022/06/30 06:12:05;;;;;;;4.10;3.30;;;;;;;26.28;65.20;99955.28;2147458;81;21049;-69
2022/06/30 06:15:08;;;;;;;3.67;3.30;;;;;;;26.31;66.18;99950.10;2153956;81;21009;-69
2022/06/30 06:18:11;;;;;;;3.83;3.42;;;;;;;26.50;64.97;99958.53;2151597;81;21745;-68
2022/06/30 06:21:14;;;;;;;4.90;3.72;;;;;;;26.67;64.98;99954.13;2153492;81;21033;-69
2022/06/30 06:24:18;;;;;;;6.50;3.92;;;;;;;26.76;63.47;99956.53;2157849;80;21053;-70
2022/06/30 06:27:19;;;;;;;4.45;3.92;;;;;;;26.96;63.24;99953.46;2154442;81;21519;-70
2022/06/30 06:30:21;;;;;;;4.12;3.67;;;;;;;26.85;63.79;99948.61;2158617;81;21040;-71
2022/06/30 06:33:24;;;;;;;4.65;4.00;;;;;;;26.95;63.45;99950.48;2159371;81;21378;-68
2022/06/30 06:36:26;;;;;;;4.12;3.75;;;;;;;27.11;62.51;99961.55;2168884;81;20974;-70
2022/06/30 06:39:28;;;;;;;6.37;4.33;;;;;;;27.25;61.60;99953.05;2165229;81;21477;-68
2022/06/30 06:42:30;;;;;;;4.40;4.00;;;;;;;27.15;61.41;99946.28;2165166;81;20947;-69
2022/06/30 06:45:31;;;;;;;9.35;4.03;;;;;;;27.12;61.32;99937.32;2133004;81;21485;-68
2022/06/30 06:48:33;;;;;;;4.17;3.77;;;;;;;27.00;61.99;99947.71;2167326;81;22342;-69
2022/06/30 06:51:37;;;;;;;4.37;3.98;;;;;;;26.91;61.43;99953.48;2166676;81;21540;-69
2022/06/30 06:54:38;;;;;;;10.28;4.12;;;;;;;26.62;61.11;99949.25;2168277;81;21095;-68
2022/06/30 06:57:40;;;;;;;4.75;3.85;;;;;;;26.22;61.69;99946.32;2138715;81;21029;-68
2022/06/30 07:00:42;;;;;;;4.60;3.87;;;;;;;26.16;61.73;99956.39;2171256;81;21607;-68
2022/06/30 07:03:43;;;;;;;4.30;3.67;;;;;;;26.37;62.55;99969.95;2163034;81;21017;-70
2022/06/30 07:06:48;;;;;;;4.67;3.80;;;;;;;26.58;61.96;99961.20;2169058;81;21036;-68
2022/06/30 07:09:48;;;;;;;4.40;4.00;;;;;;;26.80;61.55;99961.67;2164377;81;22574;-70
2022/06/30 07:12:50;;;;;;;4.95;3.85;;;;;;;27.20;61.64;99952.27;2161753;81;21025;-68
2022/06/30 07:15:56;;;;;;;4.17;3.55;;;;;;;27.54;60.99;99950.14;2137122;81;21045;-70
2022/06/30 07:18:57;;;;;;;4.12;3.65;;;;;;;27.65;60.23;99953.90;2160163;81;21029;-69
2022/06/30 07:22:02;;;;;;;5.37;4.70;;;;;;;27.56;59.84;99951.49;2163620;81;21061;-69
2022/06/30 07:25:05;;;;;;;4.65;4.25;;;;;;;27.80;60.50;99952.18;2167196;81;20982;-70
2022/06/30 07:28:07;;;;;;;4.97;3.83;;;;;;;28.43;60.20;99943.95;2166877;81;20978;-69
2022/06/30 07:31:09;;;;;;;5.65;4.22;;;;;;;28.74;59.16;99935.41;2162995;81;21006;-68
2022/06/30 07:34:10;;;;;;;5.42;4.58;;;;;;;28.86;57.63;99937.72;2167195;81;21010;-69
2022/06/30 07:37:12;;;;;;;4.62;3.80;;;;;;;28.67;57.18;99939.06;2165779;81;21093;-72
2022/06/30 07:40:14;;;;;;;4.97;4.47;;;;;;;28.65;56.96;99948.09;2167570;81;21429;-70
2022/06/30 07:43:16;;;;;;;5.62;4.83;;;;;;;28.94;57.38;99954.82;2140097;81;21081;-68
2022/06/30 07:46:20;;;;;;;5.17;4.42;;;;;;;29.17;57.20;99958.64;2165431;81;20993;-69
2022/06/30 07:49:21;;;;;;;6.05;4.60;;;;;;;29.39;56.64;99953.95;2161202;81;21046;-69
2022/06/30 07:52:22;;;;;;;5.65;4.15;;;;;;;29.59;55.47;99944.63;2134803;81;21534;-70
2022/06/30 07:55:24;;;;;;;5.78;4.05;;;;;;;29.77;55.89;99927.43;2168330;81;21515;-69
2022/06/30 07:58:25;;;;;;;5.72;4.20;;;;;;;30.01;55.26;99941.51;2141686;81;21049;-69
2022/06/30 08:01:27;;;;;;;5.30;4.42;;;;;;;30.22;54.25;99944.73;2165918;81;21013;-69
2022/06/30 08:04:28;;;;;;;4.70;4.00;;;;;;;30.03;53.95;99944.20;2165693;81;21503;-70
2022/06/30 08:07:32;;;;;;;7.08;4.58;;;;;;;30.20;54.65;99947.73;2165427;81;21039;-69
2022/06/30 08:10:34;;;;;;;6.72;4.67;;;;;;;30.66;54.27;99950.98;2161485;81;21579;-70
2022/06/30 08:13:35;;;;;;;5.20;4.58;;;;;;;31.14;54.26;99946.98;2167795;81;21006;-70
2022/06/30 08:16:37;;;;;;;6.20;5.00;;;;;;;31.30;53.03;99958.43;2172876;81;21005;-69
2022/06/30 08:19:41;;;;;;;5.97;5.08;;;;;;;31.27;51.92;99959.29;2163273;81;21061;-70
2022/06/30 08:22:42;;;;;;;5.12;4.62;;;;;;;31.31;51.89;99949.08;2167907;81;21496;-69
2022/06/30 08:25:43;;;;;;;6.35;5.15;;;;;;;31.40;51.92;99941.80;2167897;81;20962;-69
2022/06/30 08:28:44;;;;;;;5.60;4.62;;;;;;;31.59;51.74;99942.97;2170800;81;20982;-69
2022/06/30 08:31:46;;;;;;;10.08;4.60;;;;;;;31.57;51.08;99944.66;2166698;81;21004;-69
2022/06/30 08:34:48;;;;;;;5.78;5.28;;;;;;;31.45;50.65;99944.39;2169037;81;21080;-69
2022/06/30 08:37:49;;;;;;;5.30;4.80;;;;;;;31.33;50.97;99940.80;2168482;81;21073;-69
2022/06/30 08:44:12;;;;;;;6.67;5.53;;;;;;;31.86;50.14;99930.49;2166042;81;21359;-70
2022/06/30 08:47:14;;;;;;;6.92;6.22;;;;;;;31.65;50.03;99930.74;2162949;81;21057;-69
2022/06/30 08:50:19;;;;;;;7.05;6.25;;;;;;;31.90;49.92;99926.55;2170452;81;21021;-70
2022/06/30 08:53:23;;;;;;;6.87;5.42;;;;;;;32.01;49.00;99930.68;2170713;81;21579;-70
2022/06/30 08:56:31;;;;;;;6.67;5.97;;;;;;;31.75;49.72;99931.87;2167074;81;21010;-69
2022/06/30 08:59:33;;;;;;;8.90;6.35;;;;;;;31.98;48.92;99925.83;2159539;81;21002;-69
2022/06/30 09:02:34;;;;;;;7.87;7.03;;;;;;;31.78;47.90;99922.21;2168764;81;21020;-69
2022/06/30 09:05:36;;;;;;;8.98;7.08;;;;;;;31.30;49.58;99917.32;2166192;81;21599;-70
2022/06/30 09:08:37;;;;;;;7.42;6.62;;;;;;;31.16;49.62;99915.98;2170270;81;21037;-71
2022/06/30 09:11:53;;;;;;;7.33;6.62;;;;;;;31.19;49.80;99910.69;2168571;81;21584;-71
2022/06/30 09:14:55;;;;;;;7.12;6.53;;;;;;;31.14;49.86;99920.96;2166390;81;21045;-68
2022/06/30 09:18:00;;;;;;;7.28;6.58;;;;;;;31.37;50.70;99915.00;2169655;81;21037;-69
2022/06/30 09:21:17;;;;;;;7.42;6.83;;;;;;;31.93;50.34;99912.23;2166541;81;21010;-70
2022/06/30 09:24:23;;;;;;;7.25;6.55;;;;;;;31.99;49.19;99913.74;2164488;81;21048;-69
2022/06/30 09:27:27;;;;;;;8.15;6.25;;;;;;;31.88;49.38;99909.62;2170024;81;21013;-71
2022/06/30 09:30:28;;;;;;;7.42;6.80;;;;;;;31.97;49.77;99905.58;2166443;81;21077;-68
2022/06/30 09:33:39;;;;;;;7.70;7.00;;;;;;;32.25;48.52;99900.14;2162010;81;21024;-70
2022/06/30 09:36:40;;;;;;;7.72;6.95;;;;;;;32.29;48.98;99901.67;2151195;81;21687;-69
2022/06/30 09:39:44;;;;;;;7.33;6.50;;;;;;;32.55;48.34;99901.25;2149389;81;20940;-69
2022/06/30 09:42:47;;;;;;;8.25;6.60;;;;;;;32.37;48.57;99902.27;2148846;81;21083;-68
2022/06/30 09:45:49;;;;;;;8.85;7.12;;;;;;;32.50;48.05;99904.13;2148749;81;21028;-69
2022/06/30 09:48:51;;;;;;;7.95;7.15;;;;;;;32.33;48.16;99897.19;2138205;81;21476;-69
2022/06/30 09:51:53;;;;;;;9.80;7.55;;;;;;;32.54;48.48;99894.11;2114134;81;21639;-68
2022/06/30 09:54:59;;;;;;;8.73;7.05;;;;;;;32.76;47.71;99891.83;2143115;81;20948;-68
2022/06/30 09:58:00;;;;;;;8.90;7.58;;;;;;;32.96;47.48;99893.14;2146913;81;21029;-69
2022/06/30 10:01:03;;;;;;;9.70;7.28;;;;;;;33.08;46.76;99888.98;2148937;81;20998;-69
2022/06/30 10:04:10;;;;;;;8.93;6.95;;;;;;;32.96;46.95;99882.16;2141931;81;20987;-68
2022/06/30 10:07:11;;;;;;;8.13;7.42;;;;;;;33.19;46.70;99884.77;2146177;81;21039;-69
2022/06/30 10:10:16;;;;;;;8.75;7.87;;;;;;;33.48;46.37;99893.75;2144219;81;21042;-70
2022/06/30 10:13:18;;;;;;;9.03;8.10;;;;;;;33.43;45.83;99888.41;2154411;81;21548;-69
2022/06/30 10:16:22;;;;;;;11.60;7.83;;;;;;;33.51;45.58;99886.77;2144533;81;21037;-70
2022/06/30 10:19:23;;;;;;;8.80;7.97;;;;;;;33.56;45.82;99886.63;2146373;81;21009;-68
2022/06/30 10:22:28;;;;;;;8.10;7.40;;;;;;;33.73;45.76;99887.96;2143132;81;21674;-68
2022/06/30 10:25:29;;;;;;;8.38;7.58;;;;;;;33.58;44.69;99888.50;2151474;81;21532;-70
2022/06/30 10:28:31;;;;;;;8.73;7.83;;;;;;;33.35;44.69;99874.11;2153856;81;21050;-69
2022/06/30 10:31:44;;;;;;;10.30;7.00;;;;;;;33.41;45.17;99872.23;2152382;81;21604;-73
2022/06/30 10:34:54;;;;;;;7.62;6.78;;;;;;;33.37;44.98;99867.72;2144925;81;21061;-68
2022/06/30 10:38:36;;;;;;;7.75;7.03;;;;;;;33.56;44.44;99860.50;2171840;81;21041;-69
2022/06/30 10:41:47;;;;;;;8.38;7.60;;;;;;;33.60;43.71;99865.03;2169550;81;21081;-68
2022/06/30 10:44:48;;;;;;;9.05;8.15;;;;;;;33.49;44.04;99856.86;2169484;81;20998;-68
2022/06/30 10:48:09;;;;;;;8.18;7.37;;;;;;;33.26;43.84;99857.63;2165398;81;21036;-70
2022/06/30 10:51:15;;;;;;;9.60;7.47;;;;;;;33.36;44.76;99862.77;2163522;81;21429;-68
2022/06/30 10:54:32;;;;;;;9.43;7.20;;;;;;;33.41;43.78;99861.23;2167389;81;21517;-69
2022/06/30 10:58:03;;;;;;;8.93;6.80;;;;;;;33.52;43.82;99866.40;2170868;81;21036;-70
2022/06/30 11:01:13;;;;;;;8.70;7.80;;;;;;;33.64;43.50;99866.55;2166999;81;21014;-69
2022/06/30 11:04:15;;;;;;;8.33;7.47;;;;;;;33.31;42.93;99861.58;2162354;81;21101;-68
2022/06/30 11:07:24;;;;;;;7.58;6.97;;;;;;;33.00;43.25;99861.19;2168071;81;21045;-68
2022/06/30 11:10:26;;;;;;;8.20;7.40;;;;;;;32.79;43.36;99855.47;2166788;81;21010;-70
2022/06/30 11:13:29;;;;;;;8.33;7.47;;;;;;;32.32;43.11;99857.12;2160918;81;21013;-68
2022/06/30 11:16:36;;;;;;;7.22;6.62;;;;;;;32.02;44.31;99859.61;2162565;81;21080;-68
2022/06/30 11:19:37;;;;;;;8.35;7.00;;;;;;;32.24;44.43;99849.13;2138470;81;21039;-68
2022/06/30 11:22:40;;;;;;;8.05;7.25;;;;;;;32.60;44.43;99848.89;2139542;81;21029;-68
2022/06/30 11:29:08;;;;;;;8.35;7.58;;;;;;;32.89;44.03;99840.63;2163294;81;21049;-69
2022/06/30 11:32:12;;;;;;;7.47;6.78;;;;;;;33.01;44.69;99848.25;2170498;81;21464;-70
2022/06/30 11:35:14;;;;;;;7.72;6.72;;;;;;;33.18;43.42;99844.69;2166197;81;21532;-69
2022/06/30 11:38:18;;;;;;;9.00;6.85;;;;;;;33.08;43.08;99844.44;2170620;81;21065;-69
2022/06/30 11:44:47;;;;;;;7.03;6.42;;;;;;;33.20;43.91;99838.31;2160691;81;21013;-70
2022/06/30 11:47:56;;;;;;;8.68;7.87;;;;;;;33.32;43.52;99835.70;2164573;81;21016;-69
2022/06/30 11:50:57;;;;;;;7.55;6.50;;;;;;;33.47;43.59;99832.99;2164464;81;21021;-73
2022/06/30 11:54:00;;;;;;;7.37;6.67;;;;;;;33.66;43.50;99832.66;2169800;81;20947;-68
2022/06/30 11:57:01;;;;;;;8.10;6.37;;;;;;;33.89;42.98;99835.40;2164075;81;20990;-71
2022/06/30 12:00:16;;;;;;;9.35;5.70;;;;;;;33.55;42.19;99836.32;2168264;81;21516;-70
2022/06/30 12:03:18;;;;;;;6.15;5.58;;;;;;;33.51;42.96;99835.89;2167557;81;21049;-69
2022/06/30 12:06:19;;;;;;;6.00;5.28;;;;;;;33.59;42.27;99835.09;2169783;81;21017;-69
2022/06/30 12:09:21;;;;;;;7.62;5.75;;;;;;;33.68;41.87;99835.90;2170547;81;21548;-70
2022/06/30 12:12:29;;;;;;;7.37;5.85;;;;;;;33.78;39.66;99835.52;2169642;81;20966;-69
2022/06/30 12:15:30;;;;;;;7.20;6.47;;;;;;;33.71;41.66;99836.61;2169631;81;21065;-69
2022/06/30 12:18:32;;;;;;;8.75;5.83;;;;;;;33.79;39.32;99828.91;2166019;81;21052;-68
2022/06/30 12:21:34;;;;;;;7.00;6.22;;;;;;;33.46;40.75;99832.19;2167571;81;20939;-70
2022/06/30 12:24:39;;;;;;;6.47;5.53;;;;;;;33.32;40.65;99831.58;2164496;81;20938;-68
2022/06/30 12:27:47;;;;;;;8.43;6.20;;;;;;;33.08;40.97;99821.65;2161370;81;21010;-69
2022/06/30 12:30:51;;;;;;;8.25;6.92;;;;;;;32.92;42.28;99826.24;2166727;81;21037;-70
2022/06/30 12:34:00;;;;;;;6.10;5.50;;;;;;;33.15;42.88;99828.84;2137507;81;20979;-70
2022/06/30 12:37:03;;;;;;;6.33;5.72;;;;;;;33.38;42.49;99828.09;2144807;81;21046;-69
2022/06/30 12:40:12;;;;;;;8.20;5.65;;;;;;;33.58;42.38;99825.23;2165084;81;21092;-70
2022/06/30 12:43:13;;;;;;;6.37;5.83;;;;;;;33.75;41.97;99816.92;2164413;81;21524;-69
2022/06/30 12:46:18;;;;;;;7.40;6.35;;;;;;;33.78;42.40;99817.64;2166009;81;21259;-70
2022/06/30 12:49:22;;;;;;;9.10;6.00;;;;;;;33.72;42.58;99810.70;2168267;81;22288;-69
2022/06/30 12:52:24;;;;;;;7.10;6.22;;;;;;;33.66;41.06;99812.03;2164520;81;21088;-69
2022/06/30 12:55:25;;;;;;;9.20;5.60;;;;;;;33.70;40.07;99810.22;2164905;81;21133;-69
2022/06/30 12:58:43;;;;;;;6.65;5.83;;;;;;;33.61;40.51;99804.75;2170038;81;21048;-69
2022/06/30 13:01:54;;;;;;;6.60;5.70;;;;;;;33.38;40.06;99805.52;2163209;81;21083;-68
2022/06/30 13:04:56;;;;;;;7.65;6.20;;;;;;;33.39;41.17;99803.57;2167655;81;21488;-69
2022/06/30 13:07:58;;;;;;;8.75;6.00;;;;;;;33.29;40.80;99806.11;2169625;81;21032;-69
2022/06/30 13:11:06;;;;;;;6.00;5.50;;;;;;;32.98;40.56;99797.47;2169277;81;20982;-69
2022/06/30 13:14:08;;;;;;;6.47;5.87;;;;;;;33.11;41.64;99795.69;2168491;81;20986;-70
2022/06/30 13:17:11;;;;;;;7.78;6.33;;;;;;;33.25;41.78;99798.26;2162844;81;21022;-67
2022/06/30 13:20:13;;;;;;;7.05;5.90;;;;;;;33.28;42.01;99800.92;2166882;81;21587;-68
2022/06/30 13:23:15;;;;;;;6.80;6.12;;;;;;;33.44;41.64;99794.58;2165245;81;21049;-67
2022/06/30 13:26:16;;;;;;;7.45;5.35;;;;;;;33.36;41.37;99790.48;2167716;81;21037;-68
2022/06/30 13:29:19;;;;;;;6.35;5.67;;;;;;;33.33;42.00;99791.14;2170902;81;20974;-68
2022/06/30 13:32:21;;;;;;;7.80;5.30;;;;;;;33.36;41.95;99780.28;2136678;81;21049;-67
2022/06/30 13:35:22;;;;;;;6.37;5.22;;;;;;;33.41;42.01;99788.36;2161389;81;21586;-68
2022/06/30 13:38:24;;;;;;;5.95;5.22;;;;;;;33.40;41.56;99777.70;2137229;81;21516;-68
2022/06/30 13:41:28;;;;;;;6.62;5.30;;;;;;;33.41;41.21;99778.73;2137559;81;20982;-68
2022/06/30 13:44:31;;;;;;;9.23;5.12;;;;;;;33.31;40.67;99779.11;2138035;81;20986;-68
2022/06/30 13:47:33;;;;;;;5.35;4.95;;;;;;;33.25;41.12;99779.02;2108990;81;21095;-69
2022/06/30 13:50:34;;;;;;;5.22;4.72;;;;;;;33.22;41.80;99771.42;2138695;81;20996;-70
2022/06/30 13:53:38;;;;;;;7.95;4.45;;;;;;;33.13;42.18;99772.02;2147175;81;21024;-69
2022/06/30 13:56:39;;;;;;;5.37;4.92;;;;;;;33.12;42.30;99770.41;2131961;81;21451;-70
2022/06/30 13:59:40;;;;;;;5.28;4.87;;;;;;;33.12;41.42;99769.04;2140939;81;20979;-69
2022/06/30 14:02:42;;;;;;;6.20;5.12;;;;;;;33.17;42.08;99763.34;2132170;81;21444;-70
2022/06/30 14:05:46;;;;;;;5.55;5.15;;;;;;;33.20;41.53;99766.84;2139495;81;20950;-69
2022/06/30 14:08:47;;;;;;;4.72;4.33;;;;;;;33.15;41.36;99762.89;2117488;81;21038;-69
2022/06/30 14:11:48;;;;;;;8.25;5.00;;;;;;;33.16;41.36;99768.04;2147466;81;21044;-74
2022/06/30 14:14:50;;;;;;;6.35;5.10;;;;;;;33.18;41.67;99762.23;2137088;81;21051;-70
2022/06/30 14:17:52;;;;;;;5.62;4.92;;;;;;;33.08;41.43;99758.44;2145601;81;20958;-69
2022/06/30 14:20:53;;;;;;;5.78;4.75;;;;;;;33.12;41.88;99767.09;2140564;81;21919;-69
2022/06/30 14:23:55;;;;;;;6.30;4.90;;;;;;;33.11;42.41;99766.83;2136113;81;21617;-70
2022/06/30 14:26:57;;;;;;;5.72;5.22;;;;;;;33.12;42.00;99766.29;2146233;81;21598;-69
2022/06/30 14:30:00;;;;;;;6.33;5.30;;;;;;;33.13;42.13;99765.14;2143461;81;21499;-69
2022/06/30 14:33:04;;;;;;;6.03;5.03;;;;;;;33.04;42.01;99755.55;2145617;81;21496;-69
2022/06/30 14:36:06;;;;;;;5.75;5.10;;;;;;;32.93;41.88;99758.36;2125766;81;21093;-68
2022/06/30 14:39:07;;;;;;;6.75;5.08;;;;;;;32.90;42.16;99755.69;2158690;81;21492;-69
2022/06/30 14:45:32;;;;;;;5.85;4.87;;;;;;;32.87;42.29;99756.91;2165036;81;20998;-70
2022/06/30 14:48:32;;;;;;;9.10;4.95;;;;;;;32.94;42.25;99756.64;2165422;81;20990;-68
2022/06/30 14:51:34;;;;;;;8.38;5.55;;;;;;;32.92;41.30;99752.06;2163896;81;21058;-69
2022/06/30 14:54:37;;;;;;;6.67;5.10;;;;;;;32.91;41.77;99746.88;2165242;81;21488;-69
2022/06/30 14:57:40;;;;;;;6.55;5.85;;;;;;;32.89;41.75;99760.95;2163874;81;21594;-69
2022/06/30 15:00:41;;;;;;;8.80;5.65;;;;;;;32.76;41.61;99755.86;2145022;81;20946;-69
2022/06/30 15:03:43;;;;;;;5.65;5.03;;;;;;;32.69;41.40;99758.84;2163594;81;20998;-69
2022/06/30 15:06:44;;;;;;;6.45;5.45;;;;;;;32.54;41.24;99754.64;2164840;81;20993;-69
2022/06/30 15:09:46;;;;;;;7.42;5.45;;;;;;;32.49;41.71;99757.55;2170913;81;21094;-69